Time;durP1;ratioP1;P1;durP2;ratioP2;P2;SDS_P1;SDS_P2;PMS_P1;PMS_P2;Temp;Humidity;BMP_temperature;BMP_pressure;BME280_temperature;BME280_humidity;BME280_pressure;Samples;Min_cycle;Max_cycle;Signal;HPM_P1;HPM_P2
2021/06/14 00:00:53;;;;;;;6.80;6.20;;;16.90;99.90;;;;;;5054788;28;20040;-90
2021/06/14 00:03:19;;;;;;;7.80;6.90;;;16.90;99.90;;;;;;5054822;28;20040;-89
2021/06/14 00:05:45;;;;;;;7.95;6.70;;;16.90;99.90;;;;;;5054794;28;20063;-89
2021/06/14 00:08:14;;;;;;;6.63;5.93;;;16.90;99.90;;;;;;5057375;28;20029;-89
2021/06/14 00:10:44;;;;;;;6.38;5.78;;;16.80;99.90;;;;;;5058437;28;20044;-89
2021/06/14 00:13:10;;;;;;;9.02;6.47;;;16.80;99.90;;;;;;5077737;28;20029;-89
2021/06/14 00:15:38;;;;;;;6.28;5.68;;;16.80;99.90;;;;;;5058589;28;20049;-90
2021/06/14 00:18:05;;;;;;;7.13;6.43;;;16.80;99.90;;;;;;5076314;28;20028;-90
2021/06/14 00:20:34;;;;;;;6.68;6.07;;;16.80;99.90;;;;;;5058392;28;20481;-89
2021/06/14 00:23:05;;;;;;;6.65;5.95;;;16.80;99.90;;;;;;5076155;28;20028;-89
2021/06/14 00:25:35;;;;;;;9.13;7.32;;;16.80;99.90;;;;;;5076042;28;20052;-89
2021/06/14 00:28:06;;;;;;;6.00;5.50;;;16.80;99.90;;;;;;5058357;28;20445;-89
2021/06/14 00:30:38;;;;;;;6.75;6.10;;;16.80;99.90;;;;;;5057947;28;20432;-90
2021/06/14 00:33:05;;;;;;;6.78;6.18;;;16.70;99.90;;;;;;5058061;28;20438;-89
2021/06/14 00:35:31;;;;;;;7.57;6.88;;;16.80;99.90;;;;;;5057989;28;20123;-89
2021/06/14 00:38:02;;;;;;;6.43;5.80;;;16.70;99.90;;;;;;5057942;28;20028;-88
2021/06/14 00:40:29;;;;;;;7.13;6.43;;;16.70;99.90;;;;;;5057851;28;20045;-89
2021/06/14 00:42:55;;;;;;;6.13;5.53;;;16.70;99.90;;;;;;5057871;28;20029;-89
2021/06/14 00:45:31;;;;;;;6.45;5.85;;;16.70;99.90;;;;;;5057798;28;20467;-88
2021/06/14 00:48:00;;;;;;;5.90;5.30;;;16.70;99.90;;;;;;5057864;28;20124;-89
2021/06/14 00:50:34;;;;;;;6.32;5.38;;;16.60;99.90;;;;;;5057742;28;20036;-90
2021/06/14 00:53:01;;;;;;;6.30;5.35;;;16.60;99.90;;;;;;5057880;28;20087;-88
2021/06/14 00:55:31;;;;;;;6.50;5.78;;;16.60;99.90;;;;;;5058548;28;20036;-88
2021/06/14 00:57:57;;;;;;;5.93;5.43;;;16.60;99.90;;;;;;5057488;28;20090;-88
2021/06/14 01:00:26;;;;;;;6.25;5.70;;;16.50;99.90;;;;;;5075517;28;20409;-88
2021/06/14 01:02:52;;;;;;;6.18;5.57;;;16.50;99.90;;;;;;5057439;28;20036;-89
2021/06/14 01:05:18;;;;;;;6.70;6.10;;;16.50;99.90;;;;;;5075489;28;20097;-88
2021/06/14 01:07:49;;;;;;;6.03;5.40;;;16.50;99.90;;;;;;5057459;28;20044;-89
2021/06/14 01:10:20;;;;;;;7.03;6.07;;;16.50;99.90;;;;;;5057318;28;20082;-88
2021/06/14 01:12:57;;;;;;;6.20;5.28;;;16.50;99.90;;;;;;5057453;28;20032;-88
2021/06/14 01:15:28;;;;;;;5.75;5.25;;;16.40;99.90;;;;;;5061225;28;20041;-88
2021/06/14 01:18:06;;;;;;;5.93;5.30;;;16.40;99.90;;;;;;5075190;28;20029;-88
2021/06/14 01:21:10;;;;;;;7.50;6.22;;;16.40;99.90;;;;;;5056056;28;20044;-88
2021/06/14 01:23:56;;;;;;;6.65;6.05;;;16.40;99.90;;;;;;4996909;28;20042;-88
2021/06/14 01:26:23;;;;;;;6.88;6.18;;;16.40;99.90;;;;;;5053293;28;20128;-88
2021/06/14 01:28:54;;;;;;;6.78;6.18;;;16.30;99.90;;;;;;5057048;28;20399;-88
2021/06/14 01:31:26;;;;;;;7.22;6.53;;;16.30;99.90;;;;;;5057481;28;20127;-88
2021/06/14 01:33:53;;;;;;;6.97;6.28;;;16.30;99.90;;;;;;5057350;28;20386;-89
2021/06/14 01:36:48;;;;;;;7.05;6.43;;;16.30;99.90;;;;;;5056836;28;20397;-89
2021/06/14 01:39:15;;;;;;;8.10;7.30;;;16.40;99.90;;;;;;5062120;28;20043;-89
2021/06/14 01:41:41;;;;;;;6.50;5.90;;;16.30;99.90;;;;;;5056767;28;20445;-89
2021/06/14 01:44:08;;;;;;;7.88;7.15;;;16.40;99.90;;;;;;5056621;28;20028;-90
2021/06/14 01:46:40;;;;;;;7.72;6.93;;;16.50;99.90;;;;;;5056771;28;20631;-88
2021/06/14 01:49:07;;;;;;;8.02;6.75;;;16.50;99.90;;;;;;5075016;28;20482;-89
2021/06/14 01:51:36;;;;;;;8.38;7.22;;;16.50;99.90;;;;;;5056416;28;20052;-89
2021/06/14 01:54:07;;;;;;;9.45;6.63;;;16.60;99.90;;;;;;5056530;28;20036;-88
2021/06/14 01:56:42;;;;;;;8.63;7.60;;;16.60;99.90;;;;;;5057115;28;20113;-88
2021/06/14 01:59:14;;;;;;;7.53;6.82;;;16.60;99.90;;;;;;5056477;28;20035;-88
2021/06/14 02:01:42;;;;;;;8.10;7.32;;;16.60;99.90;;;;;;5056573;28;20060;-89
2021/06/14 02:04:16;;;;;;;7.85;7.03;;;16.70;99.90;;;;;;5056296;28;20036;-88
2021/06/14 02:06:47;;;;;;;6.75;6.15;;;16.70;99.90;;;;;;5056278;28;20143;-89
2021/06/14 02:09:17;;;;;;;7.47;6.78;;;16.70;99.90;;;;;;5062241;28;20074;-90
2021/06/14 02:11:51;;;;;;;7.72;6.93;;;16.70;99.90;;;;;;5056237;28;20044;-89
2021/06/14 02:14:24;;;;;;;6.43;5.82;;;16.80;99.90;;;;;;5057591;28;20024;-89
2021/06/14 02:16:52;;;;;;;7.50;6.43;;;16.90;99.90;;;;;;5074253;28;20068;-89
2021/06/14 02:19:21;;;;;;;6.03;5.43;;;16.90;99.90;;;;;;5056777;28;20039;-89
2021/06/14 02:21:47;;;;;;;6.65;6.03;;;17.00;99.90;;;;;;5056900;28;20040;-89
2021/06/14 02:24:14;;;;;;;7.30;6.63;;;17.00;99.90;;;;;;5056166;28;20028;-89
2021/06/14 02:26:45;;;;;;;8.68;6.40;;;17.10;99.90;;;;;;5055757;28;20063;-89
2021/06/14 02:29:16;;;;;;;7.28;6.57;;;17.10;99.90;;;;;;5055859;28;20024;-89
2021/06/14 02:31:42;;;;;;;7.82;6.53;;;17.10;99.90;;;;;;5055696;28;20044;-89
2021/06/14 02:34:08;;;;;;;6.85;6.10;;;17.10;99.90;;;;;;5055890;28;20037;-89
2021/06/14 02:36:38;;;;;;;8.77;7.88;;;17.10;99.90;;;;;;5073987;28;20141;-89
2021/06/14 02:39:10;;;;;;;7.20;6.50;;;17.20;99.90;;;;;;5055660;28;20063;-89
2021/06/14 02:41:37;;;;;;;9.43;6.65;;;17.20;99.90;;;;;;5073814;28;20040;-89
2021/06/14 02:44:07;;;;;;;8.77;7.50;;;17.20;99.90;;;;;;5055522;28;20041;-91
2021/06/14 02:46:36;;;;;;;9.02;7.60;;;17.20;99.90;;;;;;5073732;28;20044;-89
2021/06/14 02:49:03;;;;;;;7.97;6.93;;;17.20;99.90;;;;;;5073930;28;20071;-90
2021/06/14 02:51:37;;;;;;;9.35;7.65;;;17.20;99.90;;;;;;5055644;28;20186;-89
2021/06/14 02:54:07;;;;;;;7.80;7.10;;;17.30;99.90;;;;;;5055546;28;20033;-88
2021/06/14 02:56:37;;;;;;;7.35;6.40;;;17.30;99.90;;;;;;5073573;28;20786;-89
2021/06/14 02:59:15;;;;;;;8.43;7.32;;;17.30;99.90;;;;;;5055727;28;20371;-89
2021/06/14 03:01:44;;;;;;;8.13;6.45;;;17.40;99.90;;;;;;5048295;28;20060;-89
2021/06/14 03:04:11;;;;;;;7.20;6.50;;;17.40;99.90;;;;;;5074376;28;20029;-89
2021/06/14 03:06:37;;;;;;;7.18;6.47;;;17.50;99.90;;;;;;5073462;28;20395;-90
2021/06/14 03:09:07;;;;;;;7.72;6.80;;;17.50;99.90;;;;;;5055291;28;20051;-89
2021/06/14 03:11:33;;;;;;;7.88;6.88;;;17.50;99.90;;;;;;5073487;28;20048;-89
2021/06/14 03:14:05;;;;;;;8.05;7.25;;;17.60;99.90;;;;;;5057632;28;20025;-89
2021/06/14 03:16:32;;;;;;;7.55;6.50;;;17.70;99.90;;;;;;5055447;28;20432;-89
2021/06/14 03:18:59;;;;;;;8.05;7.25;;;17.70;99.90;;;;;;5055257;28;20032;-88
2021/06/14 03:21:30;;;;;;;8.85;7.55;;;17.80;99.90;;;;;;5073459;28;20071;-89
2021/06/14 03:23:55;;;;;;;8.55;7.40;;;17.80;99.90;;;;;;5055531;28;20394;-88
2021/06/14 03:26:40;;;;;;;7.85;7.05;;;18.00;99.90;;;;;;5055364;28;20052;-87
2021/06/14 03:29:07;;;;;;;7.47;6.57;;;18.00;99.90;;;;;;5055246;28;20032;-88
2021/06/14 03:31:35;;;;;;;9.18;6.53;;;18.00;99.90;;;;;;5073931;28;20071;-88
2021/06/14 03:34:01;;;;;;;8.30;7.53;;;18.10;99.90;;;;;;5055275;28;20056;-88
2021/06/14 03:36:31;;;;;;;7.03;6.30;;;18.20;99.90;;;;;;5055167;28;20091;-87
2021/06/14 03:38:58;;;;;;;7.68;6.88;;;18.30;99.90;;;;;;5055209;28;20029;-87
2021/06/14 03:41:24;;;;;;;8.15;6.57;;;18.50;99.90;;;;;;5055042;28;20037;-87
2021/06/14 03:43:53;;;;;;;6.35;5.75;;;18.60;99.90;;;;;;5057627;28;20119;-88
2021/06/14 03:46:19;;;;;;;6.15;5.55;;;18.60;99.90;;;;;;5059343;28;20063;-88
2021/06/14 03:48:45;;;;;;;6.63;5.97;;;18.60;99.90;;;;;;5059426;28;20363;-87
2021/06/14 03:51:12;;;;;;;7.22;6.53;;;18.70;99.90;;;;;;5058843;28;20532;-89
2021/06/14 03:53:39;;;;;;;7.38;6.68;;;18.80;99.90;;;;;;5059209;28;20090;-88
2021/06/14 03:56:09;;;;;;;6.97;6.28;;;18.80;99.90;;;;;;5060559;28;20024;-90
2021/06/14 03:58:37;;;;;;;7.15;6.45;;;18.90;99.90;;;;;;5059148;28;20490;-89
2021/06/14 04:01:03;;;;;;;7.65;6.65;;;18.90;99.90;;;;;;5058663;28;20497;-89
2021/06/14 04:03:29;;;;;;;7.65;6.85;;;19.00;99.90;;;;;;5065322;28;20032;-90
2021/06/14 04:05:56;;;;;;;8.27;6.93;;;19.00;99.90;;;;;;5063507;28;20052;-89
2021/06/14 04:08:23;;;;;;;8.30;7.47;;;19.20;99.90;;;;;;5059673;28;20432;-91
2021/06/14 04:10:48;;;;;;;7.15;6.45;;;19.40;99.90;;;;;;5059661;28;20033;-90
2021/06/14 04:13:15;;;;;;;8.10;7.40;;;19.50;99.90;;;;;;5058972;28;20033;-89
2021/06/14 04:15:40;;;;;;;7.78;7.07;;;19.80;99.90;;;;;;5061199;28;20119;-91
2021/06/14 04:18:06;;;;;;;9.50;6.68;;;19.90;99.90;;;;;;5059761;28;20469;-89
2021/06/14 04:20:32;;;;;;;8.68;7.55;;;20.00;99.90;;;;;;5063224;28;20116;-90
2021/06/14 04:22:58;;;;;;;7.85;6.90;;;20.00;99.90;;;;;;5060111;28;20547;-92
2021/06/14 04:25:24;;;;;;;7.78;7.07;;;20.00;99.90;;;;;;5062422;28;20136;-90
2021/06/14 04:27:51;;;;;;;7.90;7.10;;;19.90;99.90;;;;;;5061916;28;20068;-91
2021/06/14 04:30:18;;;;;;;7.93;7.05;;;19.90;99.90;;;;;;5058602;28;20094;-91
2021/06/14 04:32:44;;;;;;;8.10;7.30;;;20.00;99.90;;;;;;5058483;28;20040;-91
2021/06/14 04:35:11;;;;;;;7.70;6.90;;;20.00;99.90;;;;;;5058308;28;20032;-90
2021/06/14 04:37:37;;;;;;;7.13;6.50;;;20.00;99.90;;;;;;5058346;28;20036;-90
2021/06/14 04:40:05;;;;;;;8.35;7.55;;;20.10;99.90;;;;;;5058320;28;20040;-90
2021/06/14 04:42:31;;;;;;;7.75;6.82;;;20.20;99.90;;;;;;5071187;28;20029;-90
2021/06/14 04:44:57;;;;;;;8.40;7.60;;;20.20;99.90;;;;;;5072000;28;20071;-89
2021/06/14 04:47:23;;;;;;;7.72;7.00;;;20.20;99.90;;;;;;5087206;28;20038;-90
2021/06/14 04:49:49;;;;;;;7.72;7.03;;;20.30;99.90;;;;;;5059827;28;20111;-92
2021/06/14 04:52:15;;;;;;;6.22;5.63;;;20.40;99.90;;;;;;5058285;28;20405;-91
2021/06/14 04:54:41;;;;;;;7.97;6.47;;;20.40;99.90;;;;;;5058334;28;20045;-91
2021/06/14 04:57:07;;;;;;;7.20;6.50;;;20.50;99.90;;;;;;5058015;28;20037;-91
2021/06/14 04:59:33;;;;;;;7.25;6.65;;;20.60;99.90;;;;;;5060770;28;20040;-89
2021/06/14 05:01:59;;;;;;;7.43;6.72;;;20.70;99.90;;;;;;5077274;28;20042;-92
2021/06/14 05:04:25;;;;;;;7.88;7.07;;;20.70;99.90;;;;;;5058001;28;20037;-91
2021/06/14 05:06:51;;;;;;;8.00;7.20;;;20.90;99.90;;;;;;5057858;28;20047;-91
2021/06/14 05:09:16;;;;;;;8.43;7.63;;;21.00;99.90;;;;;;5058012;28;20037;-90
2021/06/14 05:11:42;;;;;;;9.13;8.20;;;21.20;99.90;;;;;;5058074;28;20025;-90
2021/06/14 05:14:09;;;;;;;9.25;7.05;;;21.30;99.90;;;;;;5059335;28;20044;-90
2021/06/14 05:16:35;;;;;;;8.07;7.28;;;21.60;99.90;;;;;;5060190;28;20032;-91
2021/06/14 05:19:00;;;;;;;9.70;8.43;;;22.10;99.90;;;;;;5060284;28;20102;-90
2021/06/14 05:21:27;;;;;;;9.38;8.48;;;22.50;99.90;;;;;;5070337;28;20036;-89
2021/06/14 05:23:53;;;;;;;8.15;7.40;;;22.70;99.90;;;;;;5076208;28;20036;-90
2021/06/14 05:26:19;;;;;;;9.60;7.65;;;23.10;99.90;;;;;;5075418;28;20390;-93
2021/06/14 05:28:45;;;;;;;8.65;7.85;;;23.40;99.90;;;;;;5058962;28;20036;-91
2021/06/14 05:31:11;;;;;;;7.38;6.55;;;23.80;99.90;;;;;;5058813;28;20029;-92
2021/06/14 05:33:37;;;;;;;8.20;6.13;;;24.10;99.90;;;;;;5065541;28;20048;-89
2021/06/14 05:36:03;;;;;;;6.65;6.00;;;24.50;99.90;;;;;;5081539;28;20024;-91
2021/06/14 05:38:29;;;;;;;6.50;5.90;;;24.80;99.90;;;;;;5068294;28;20401;-89
2021/06/14 05:40:55;;;;;;;6.63;5.50;;;24.90;99.90;;;;;;5061382;28;20035;-90
2021/06/14 05:43:21;;;;;;;6.47;5.60;;;25.00;99.90;;;;;;5062922;28;20044;-90
2021/06/14 05:45:47;;;;;;;9.77;6.05;;;25.10;99.90;;;;;;5058038;28;20032;-89
2021/06/14 05:48:13;;;;;;;7.60;6.25;;;25.20;99.90;;;;;;5061529;28;20401;-90
2021/06/14 05:50:39;;;;;;;6.82;6.15;;;25.30;99.90;;;;;;5058727;28;20036;-90
2021/06/14 05:53:05;;;;;;;6.68;5.30;;;25.40;99.90;;;;;;5057547;28;20374;-92
2021/06/14 05:55:31;;;;;;;5.80;5.20;;;25.70;99.90;;;;;;5057080;28;20036;-91
2021/06/14 05:57:56;;;;;;;5.57;5.07;;;26.10;99.90;;;;;;5059203;28;20100;-91
2021/06/14 06:00:22;;;;;;;5.88;4.90;;;26.50;99.90;;;;;;5056276;28;20390;-91
2021/06/14 06:02:48;;;;;;;8.50;4.85;;;26.90;99.90;;;;;;5055294;28;20043;-91
2021/06/14 06:05:14;;;;;;;6.60;4.60;;;27.30;99.90;;;;;;5056453;28;20032;-91
2021/06/14 06:07:41;;;;;;;9.02;5.43;;;27.60;99.90;;;;;;5066516;28;20048;-92
2021/06/14 06:10:08;;;;;;;5.43;4.93;;;27.70;99.90;;;;;;5074775;28;20039;-92
2021/06/14 06:12:34;;;;;;;4.97;4.30;;;27.60;98.80;;;;;;5057769;28;20040;-93
2021/06/14 06:15:03;;;;;;;6.50;4.80;;;27.50;99.40;;;;;;5062338;28;20033;-92
2021/06/14 06:17:29;;;;;;;6.85;4.85;;;27.60;97.50;;;;;;5075796;28;20048;-92
2021/06/14 06:19:56;;;;;;;5.10;4.70;;;27.60;97.60;;;;;;5057604;28;20039;-92
2021/06/14 06:22:22;;;;;;;6.32;5.70;;;27.90;98.50;;;;;;5057605;28;20043;-92
2021/06/14 06:24:48;;;;;;;8.32;5.40;;;28.20;94.50;;;;;;5056853;28;20025;-90
2021/06/14 06:27:13;;;;;;;9.82;4.93;;;28.20;94.00;;;;;;5056450;28;20044;-92
2021/06/14 06:29:40;;;;;;;6.75;5.28;;;28.30;95.00;;;;;;5055568;28;20033;-92
2021/06/14 06:32:06;;;;;;;6.30;5.70;;;28.70;94.60;;;;;;5054760;28;20039;-91
2021/06/14 06:34:31;;;;;;;5.82;5.22;;;28.70;91.10;;;;;;5054862;28;20040;-92
2021/06/14 06:36:57;;;;;;;8.40;6.70;;;28.50;90.60;;;;;;5056782;28;20397;-92
2021/06/14 06:39:23;;;;;;;6.78;5.95;;;28.50;85.40;;;;;;5056768;28;20409;-92
2021/06/14 06:41:49;;;;;;;7.72;5.95;;;28.60;90.50;;;;;;5054182;28;20529;-91
2021/06/14 06:44:15;;;;;;;5.10;4.57;;;28.90;87.60;;;;;;5059453;28;20059;-92
2021/06/14 06:46:44;;;;;;;5.88;5.38;;;29.40;90.60;;;;;;5067575;28;20036;-90
2021/06/14 06:49:09;;;;;;;7.97;5.75;;;29.90;81.20;;;;;;5073293;28;20064;-91
2021/06/14 06:51:41;;;;;;;7.95;6.13;;;29.90;81.40;;;;;;5055667;28;20032;-91
2021/06/14 06:54:13;;;;;;;6.95;6.00;;;29.80;77.10;;;;;;5053854;28;20505;-91
2021/06/14 06:56:47;;;;;;;7.60;5.72;;;29.80;78.40;;;;;;5054748;28;20047;-92
2021/06/14 06:59:14;;;;;;;5.75;5.18;;;30.00;77.60;;;;;;5055844;28;20037;-92
2021/06/14 07:01:40;;;;;;;7.28;5.68;;;30.30;79.10;;;;;;5057552;28;20070;-92
2021/06/14 07:04:06;;;;;;;6.20;5.60;;;30.50;72.70;;;;;;5054995;28;20032;-92
2021/06/14 07:06:33;;;;;;;7.63;5.57;;;30.40;71.80;;;;;;5055891;28;20108;-92
2021/06/14 07:08:59;;;;;;;5.43;4.70;;;30.60;70.10;;;;;;5058998;28;20048;-91
2021/06/14 07:11:27;;;;;;;6.57;5.07;;;30.60;70.10;;;;;;5076203;28;20438;-91
2021/06/14 07:14:02;;;;;;;5.30;4.63;;;30.60;70.00;;;;;;5054573;28;20412;-91
2021/06/14 07:16:28;;;;;;;7.15;4.53;;;30.70;66.50;;;;;;5057610;28;20067;-90
2021/06/14 07:18:54;;;;;;;4.15;3.75;;;31.00;70.60;;;;;;5061735;28;20397;-92
2021/06/14 07:21:21;;;;;;;6.22;4.10;;;31.30;71.10;;;;;;5064771;28;20143;-91
2021/06/14 07:23:49;;;;;;;6.53;4.28;;;31.20;68.30;;;;;;5069526;28;20059;-92
2021/06/14 07:26:15;;;;;;;5.18;4.30;;;31.40;66.10;;;;;;5063491;28;20076;-92
2021/06/14 07:28:43;;;;;;;4.50;4.10;;;31.20;67.00;;;;;;5062223;28;20090;-93
2021/06/14 07:31:10;;;;;;;4.75;4.18;;;31.00;68.90;;;;;;5061821;28;20425;-92
2021/06/14 07:33:40;;;;;;;6.07;4.18;;;31.10;69.10;;;;;;5079561;28;20040;-90
2021/06/14 07:36:08;;;;;;;9.57;4.95;;;31.30;68.20;;;;;;5061544;28;20112;-92
2021/06/14 07:38:34;;;;;;;8.48;4.97;;;31.60;69.00;;;;;;5061083;28;20056;-91
2021/06/14 07:41:00;;;;;;;6.88;4.18;;;32.20;67.20;;;;;;5057303;28;20072;-90
2021/06/14 07:43:26;;;;;;;4.35;3.95;;;32.60;67.10;;;;;;5060196;28;20036;-92
2021/06/14 07:45:53;;;;;;;5.30;3.80;;;33.00;66.80;;;;;;5091219;28;20047;-91
2021/06/14 07:48:19;;;;;;;4.63;4.22;;;33.30;66.20;;;;;;5080509;28;20040;-92
2021/06/14 07:50:46;;;;;;;5.32;3.88;;;33.40;65.00;;;;;;5079352;28;20039;-92
2021/06/14 07:53:13;;;;;;;4.50;3.70;;;33.60;64.80;;;;;;5084975;28;20040;-91
2021/06/14 07:55:39;;;;;;;5.25;3.90;;;33.70;62.40;;;;;;5043529;28;20087;-92
2021/06/14 07:58:05;;;;;;;4.20;3.80;;;33.80;62.10;;;;;;5059656;28;20025;-90
2021/06/14 08:00:31;;;;;;;3.60;3.30;;;33.90;62.10;;;;;;5056934;28;20444;-91
2021/06/14 08:02:57;;;;;;;3.90;3.50;;;34.00;62.60;;;;;;5057090;28;20024;-91
2021/06/14 08:05:23;;;;;;;6.13;3.65;;;34.30;61.40;;;;;;5057329;28;20127;-91
2021/06/14 08:07:49;;;;;;;4.05;3.47;;;34.40;60.90;;;;;;5075949;28;20060;-92
2021/06/14 08:10:17;;;;;;;4.45;3.80;;;34.60;60.60;;;;;;5076832;28;20040;-90
2021/06/14 08:12:47;;;;;;;5.72;3.53;;;34.60;59.30;;;;;;5058209;28;20410;-92
2021/06/14 08:15:19;;;;;;;3.95;3.47;;;35.00;59.80;;;;;;5061032;28;20037;-91
2021/06/14 08:17:45;;;;;;;3.58;3.28;;;35.30;59.10;;;;;;5041001;28;20374;-92
2021/06/14 08:25:41;;;;;;;5.03;3.80;;;35.20;55.60;;;;;;5076845;28;20051;-92
2021/06/14 08:28:07;;;;;;;5.35;3.28;;;35.00;55.10;;;;;;5060059;28;20029;-90
2021/06/14 08:30:32;;;;;;;3.75;3.45;;;34.90;54.20;;;;;;5075617;28;20533;-90
2021/06/14 08:32:59;;;;;;;3.65;3.35;;;34.60;53.80;;;;;;5054338;28;20493;-90
2021/06/14 08:35:26;;;;;;;4.15;2.97;;;34.70;55.00;;;;;;5057224;28;20045;-90
2021/06/14 08:37:54;;;;;;;3.25;2.90;;;35.20;54.20;;;;;;5058070;28;20028;-91
2021/06/14 08:40:22;;;;;;;2.90;2.70;;;35.40;54.10;;;;;;5055316;28;20083;-90
2021/06/14 08:42:49;;;;;;;4.20;3.03;;;35.80;53.70;;;;;;5056170;28;20049;-92
2021/06/14 08:45:16;;;;;;;3.35;3.05;;;36.10;53.10;;;;;;5057980;28;20480;-88
2021/06/14 08:47:43;;;;;;;3.95;3.10;;;36.20;51.80;;;;;;5063093;28;20067;-91
2021/06/14 08:50:12;;;;;;;3.45;3.15;;;36.10;51.00;;;;;;5062525;28;20048;-89
2021/06/14 08:52:38;;;;;;;2.80;2.60;;;35.90;51.10;;;;;;5059122;28;20044;-91
2021/06/14 08:55:07;;;;;;;3.67;3.10;;;35.90;51.40;;;;;;5060678;28;20223;-90
2021/06/14 08:57:33;;;;;;;4.72;2.70;;;36.00;51.20;;;;;;5056553;28;20063;-92
2021/06/14 08:59:59;;;;;;;5.40;2.85;;;36.30;50.90;;;;;;5057270;28;20071;-89
2021/06/14 09:02:25;;;;;;;5.28;2.92;;;36.40;49.50;;;;;;5056988;28;20119;-92
2021/06/14 09:04:51;;;;;;;3.25;2.40;;;36.50;50.00;;;;;;5055950;28;20549;-91
2021/06/14 09:07:18;;;;;;;4.32;2.45;;;36.80;50.30;;;;;;5061779;28;20036;-90
2021/06/14 09:09:45;;;;;;;2.80;2.60;;;37.30;50.00;;;;;;5062310;28;20032;-91
2021/06/14 09:12:11;;;;;;;3.15;2.85;;;37.50;49.00;;;;;;5057829;28;20062;-90
2021/06/14 09:14:41;;;;;;;3.83;2.50;;;37.60;48.40;;;;;;5060061;28;20036;-93
2021/06/14 09:17:12;;;;;;;3.67;2.90;;;37.60;48.50;;;;;;5065232;28;20032;-90
2021/06/14 09:19:51;;;;;;;3.75;2.40;;;37.50;47.20;;;;;;5057104;28;20512;-92
2021/06/14 09:22:25;;;;;;;3.38;2.60;;;37.40;47.10;;;;;;5056275;28;20063;-91
2021/06/14 09:25:05;;;;;;;3.72;2.22;;;37.30;47.70;;;;;;5075734;28;20393;-92
2021/06/14 09:27:33;;;;;;;2.63;2.40;;;37.50;47.40;;;;;;5059373;28;20044;-92
2021/06/14 09:30:34;;;;;;;4.03;2.30;;;37.50;47.70;;;;;;5061546;28;20041;-93
2021/06/14 09:33:09;;;;;;;2.50;2.30;;;37.50;46.50;;;;;;5060611;28;20040;-93
2021/06/14 09:35:38;;;;;;;3.90;2.58;;;37.10;45.70;;;;;;5065228;28;20047;-94
2021/06/14 09:38:13;;;;;;;2.58;2.30;;;36.90;46.20;;;;;;5063753;28;20393;-92
2021/06/14 09:40:56;;;;;;;2.60;2.30;;;36.80;46.70;;;;;;5060286;28;20040;-92
2021/06/14 09:43:30;;;;;;;2.85;2.40;;;36.90;46.30;;;;;;5042479;28;20401;-93
2021/06/14 09:46:04;;;;;;;2.33;2.13;;;36.90;46.80;;;;;;5060548;28;20068;-93
2021/06/14 09:48:31;;;;;;;2.42;2.22;;;37.40;46.60;;;;;;5059283;28;20379;-91
2021/06/14 09:51:01;;;;;;;2.60;2.40;;;37.60;45.80;;;;;;5059219;28;20502;-91
2021/06/14 09:53:35;;;;;;;2.05;1.92;;;37.40;45.70;;;;;;5058899;28;20087;-93
2021/06/14 09:56:18;;;;;;;2.60;2.40;;;37.50;45.60;;;;;;5044439;28;20037;-91
2021/06/14 09:58:48;;;;;;;4.32;2.20;;;37.20;44.70;;;;;;5064536;28;20032;-92
2021/06/14 10:01:35;;;;;;;3.47;2.30;;;37.00;44.90;;;;;;5065944;28;20027;-91
2021/06/14 10:04:12;;;;;;;4.25;2.45;;;37.10;45.40;;;;;;5066630;28;20071;-92
2021/06/14 10:06:54;;;;;;;;;;;;;;;;;;;;;
2021/06/14 10:09:23;;;;;;;2.15;2.00;;;37.10;44.10;;;;;;5090988;28;20063;-92
2021/06/14 10:11:49;;;;;;;2.35;2.13;;;37.00;44.60;;;;;;5073346;28;20056;-92
2021/06/14 10:14:32;;;;;;;2.22;2.03;;;37.20;44.80;;;;;;5064066;28;20021;-91
2021/06/14 10:17:02;;;;;;;;;;;37.20;43.50;;;;;;5059214;28;20055;-92
2021/06/14 10:19:37;;;;;;;2.22;2.03;;;36.90;44.90;;;;;;5060384;28;19965;-94
2021/06/14 10:22:03;;;;;;;3.42;2.20;;;37.40;45.10;;;;;;5061828;28;20534;-94
2021/06/14 10:24:29;;;;;;;3.17;2.00;;;38.00;44.90;;;;;;5063981;28;20029;-94
2021/06/14 10:26:56;;;;;;;2.42;2.20;;;38.30;44.30;;;;;;5068815;28;20055;-93
2021/06/14 10:29:32;;;;;;;2.67;2.10;;;38.60;43.90;;;;;;5049079;28;20074;-92
2021/06/14 10:31:57;;;;;;;2.38;2.00;;;38.60;43.20;;;;;;5062856;28;20075;-92
2021/06/14 10:34:26;;;;;;;2.40;2.10;;;38.60;43.30;;;;;;5060778;28;20025;-91
2021/06/14 10:36:54;;;;;;;3.25;1.98;;;38.60;43.30;;;;;;5055834;28;20036;-90
2021/06/14 10:39:27;;;;;;;3.75;2.00;;;38.60;42.70;;;;;;5056187;28;20051;-92
2021/06/14 10:41:56;;;;;;;3.60;2.00;;;38.60;42.70;;;;;;5056844;28;20504;-90
2021/06/14 10:44:22;;;;;;;2.20;1.75;;;38.20;42.70;;;;;;5057153;28;20085;-92
2021/06/14 10:46:49;;;;;;;2.03;1.90;;;38.10;43.10;;;;;;5055703;28;20045;-92
2021/06/14 10:49:15;;;;;;;2.65;1.83;;;38.30;42.60;;;;;;5057935;28;20178;-90
2021/06/14 10:51:44;;;;;;;1.85;1.73;;;38.40;42.60;;;;;;5056049;28;20409;-91
2021/06/14 10:54:12;;;;;;;2.88;1.52;;;38.60;42.90;;;;;;5057899;28;20029;-90
2021/06/14 10:56:39;;;;;;;4.47;1.70;;;38.90;42.00;;;;;;5073696;28;20123;-92
2021/06/14 10:59:08;;;;;;;1.88;1.77;;;39.10;41.80;;;;;;5057869;28;20037;-93
2021/06/14 11:01:45;;;;;;;3.67;1.80;;;39.40;41.90;;;;;;5058260;28;20044;-93
2021/06/14 11:04:24;;;;;;;1.80;1.70;;;39.50;41.10;;;;;;5056556;28;20493;-90
2021/06/14 11:06:51;;;;;;;5.90;1.70;;;39.60;41.70;;;;;;5056125;28;20059;-91
2021/06/14 11:09:17;;;;;;;2.17;1.85;;;39.70;40.90;;;;;;5056196;28;20068;-91
2021/06/14 11:11:43;;;;;;;1.80;1.70;;;39.80;40.40;;;;;;5056029;28;20060;-90
2021/06/14 11:14:09;;;;;;;2.10;1.92;;;39.60;40.40;;;;;;5057143;28;20044;-91
2021/06/14 11:16:38;;;;;;;1.90;1.80;;;39.40;40.10;;;;;;5055755;28;20077;-91
2021/06/14 11:19:11;;;;;;;1.70;1.60;;;39.30;40.00;;;;;;5058504;28;20361;-91
2021/06/14 11:21:39;;;;;;;1.75;1.65;;;39.30;40.20;;;;;;5057278;28;20041;-92
2021/06/14 11:24:11;;;;;;;2.00;1.77;;;39.20;40.30;;;;;;5056457;28;20028;-91
2021/06/14 11:26:38;;;;;;;1.88;1.77;;;39.50;40.10;;;;;;5060818;28;20045;-91
2021/06/14 11:29:17;;;;;;;1.42;1.33;;;39.40;40.40;;;;;;5059607;28;20033;-92
2021/06/14 11:32:01;;;;;;;1.70;1.60;;;39.50;39.80;;;;;;5058300;28;20505;-91
2021/06/14 11:34:40;;;;;;;1.85;1.65;;;39.60;39.40;;;;;;5056706;28;20554;-93
2021/06/14 11:37:08;;;;;;;3.75;1.70;;;39.70;39.40;;;;;;5058601;28;20047;-92
2021/06/14 11:39:40;;;;;;;1.75;1.60;;;39.70;39.50;;;;;;5059408;28;20094;-92
2021/06/14 11:42:46;;;;;;;1.55;1.45;;;39.70;39.60;;;;;;5061989;28;20044;-92
2021/06/14 11:45:29;;;;;;;1.45;1.35;;;39.80;39.20;;;;;;5058917;28;20551;-93
2021/06/14 11:48:00;;;;;;;3.50;1.63;;;39.90;38.90;;;;;;5056657;28;20048;-91
2021/06/14 11:50:28;;;;;;;1.60;1.50;;;39.70;38.90;;;;;;5057451;28;20036;-93
2021/06/14 11:53:03;;;;;;;1.92;1.50;;;39.50;39.40;;;;;;5071292;28;20046;-92
2021/06/14 11:55:32;;;;;;;1.73;1.42;;;39.90;39.20;;;;;;5073603;28;20100;-92
2021/06/14 11:58:00;;;;;;;1.63;1.52;;;39.90;38.90;;;;;;5073220;28;20028;-92
2021/06/14 12:00:33;;;;;;;1.60;1.50;;;39.90;38.80;;;;;;5076197;28;20040;-92
2021/06/14 12:03:00;;;;;;;1.55;1.45;;;39.80;38.50;;;;;;5069088;28;20037;-93
2021/06/14 12:05:36;;;;;;;1.80;1.70;;;39.50;38.20;;;;;;5063974;28;20032;-91
2021/06/14 12:08:09;;;;;;;1.40;1.30;;;39.00;38.20;;;;;;5064496;28;20612;-91
2021/06/14 12:10:35;;;;;;;3.60;1.58;;;38.20;38.50;;;;;;5061892;28;20391;-93
2021/06/14 12:13:02;;;;;;;1.98;1.88;;;37.50;38.90;;;;;;5080806;28;20051;-90
2021/06/14 12:15:39;;;;;;;1.52;1.42;;;37.00;39.20;;;;;;5070045;28;20056;-91
2021/06/14 12:18:08;;;;;;;1.75;1.65;;;36.90;39.80;;;;;;5072963;28;20086;-91
2021/06/14 12:20:37;;;;;;;1.60;1.50;;;36.50;39.70;;;;;;5061464;28;20063;-92
2021/06/14 12:23:08;;;;;;;1.58;1.48;;;35.80;40.10;;;;;;5063007;28;20032;-94
2021/06/14 12:25:38;;;;;;;1.63;1.52;;;34.90;40.60;;;;;;5060859;28;20039;-93
2021/06/14 12:28:06;;;;;;;2.17;1.67;;;34.60;41.40;;;;;;5063287;28;20048;-92
2021/06/14 12:30:33;;;;;;;1.90;1.50;;;34.50;41.90;;;;;;5059344;28;20025;-92
2021/06/14 12:33:00;;;;;;;1.48;1.38;;;34.20;41.50;;;;;;5060999;28;20170;-91
2021/06/14 12:35:28;;;;;;;2.00;1.90;;;34.10;42.00;;;;;;5058736;28;20029;-93
2021/06/14 12:37:55;;;;;;;1.67;1.58;;;33.90;42.00;;;;;;5060050;28;20542;-91
2021/06/14 12:40:26;;;;;;;3.60;1.70;;;33.60;42.60;;;;;;5078574;28;20037;-93
2021/06/14 12:43:06;;;;;;;2.65;1.67;;;34.30;43.30;;;;;;5079215;28;20110;-92
2021/06/14 12:45:34;;;;;;;4.30;1.90;;;35.10;42.00;;;;;;5061104;28;20047;-93
2021/06/14 12:48:03;;;;;;;1.90;1.77;;;35.00;41.40;;;;;;5059566;28;20063;-91
2021/06/14 12:50:35;;;;;;;2.08;1.98;;;34.50;41.70;;;;;;5060734;28;20036;-92
2021/06/14 12:53:03;;;;;;;1.80;1.70;;;34.10;42.30;;;;;;5062841;28;20401;-89
2021/06/14 12:55:32;;;;;;;2.47;2.13;;;33.70;43.00;;;;;;5077038;28;20039;-90
2021/06/14 12:58:02;;;;;;;2.53;1.80;;;33.80;43.90;;;;;;5059966;28;20375;-91
2021/06/14 13:00:32;;;;;;;2.67;2.08;;;34.50;44.00;;;;;;5060937;28;20061;-92
2021/06/14 13:03:00;;;;;;;2.67;1.75;;;35.40;43.00;;;;;;5060752;28;20041;-91